Time;durP1;ratioP1;P1;durP2;ratioP2;P2;SDS_P1;SDS_P2;PMS_P1;PMS_P2;Temp;Humidity;BMP_temperature;BMP_pressure;BME280_temperature;BME280_humidity;BME280_pressure;Samples;Min_cycle;Max_cycle;Signal;HPM_P1;HPM_P2
2023/02/28 00:01:29;;;;;;;43.60;19.70;;;;;;;-1.98;56.87;100353.33;104679;1260;107627;-77
2023/02/28 00:03:57;;;;;;;38.80;19.10;;;;;;;-1.97;56.89;100350.38;104657;1265;96657;-76
2023/02/28 00:06:26;;;;;;;42.70;20.40;;;;;;;-1.97;57.00;100361.67;104838;1259;98456;-77
2023/02/28 00:08:55;;;;;;;43.80;21.00;;;;;;;-1.97;57.07;100362.73;104666;1260;108060;-77
2023/02/28 00:11:23;;;;;;;42.50;19.30;;;;;;;-1.97;56.73;100365.67;104755;1262;101028;-77
2023/02/28 00:13:51;;;;;;;42.50;20.10;;;;;;;-1.96;56.89;100366.20;104670;1263;105947;-77
2023/02/28 00:16:22;;;;;;;40.30;18.50;;;;;;;-1.95;57.14;100366.89;104925;1264;97814;-77
2023/02/28 00:18:50;;;;;;;41.50;19.60;;;;;;;-1.97;56.88;100367.25;104925;1262;97026;-77
2023/02/28 00:21:19;;;;;;;39.70;19.80;;;;;;;-2.01;56.89;100369.15;104677;1260;109982;-78
2023/02/28 00:23:48;;;;;;;37.70;18.20;;;;;;;-2.07;57.19;100371.77;104915;1260;100654;-76
2023/02/28 00:26:16;;;;;;;36.10;17.50;;;;;;;-2.12;56.95;100375.59;104582;1264;107632;-76
2023/02/28 00:28:48;;;;;;;38.80;19.20;;;;;;;-2.16;56.93;100374.71;104903;1262;97257;-77
2023/02/28 00:31:16;;;;;;;42.20;19.50;;;;;;;-2.20;57.29;100376.44;104620;1261;97796;-78
2023/02/28 00:33:43;;;;;;;43.60;20.70;;;;;;;-2.21;57.23;100373.33;104945;1262;110545;-76
2023/02/28 00:36:11;;;;;;;41.60;20.10;;;;;;;-2.25;57.02;100371.07;104809;1262;100882;-77
2023/02/28 00:38:40;;;;;;;36.70;18.60;;;;;;;-2.29;57.13;100369.33;104838;1263;108361;-77
2023/02/28 00:41:09;;;;;;;42.40;21.50;;;;;;;-2.32;57.28;100363.59;104626;1259;96747;-77
2023/02/28 00:43:39;;;;;;;42.30;21.00;;;;;;;-2.35;57.16;100362.53;104734;1263;97151;-77
2023/02/28 00:46:07;;;;;;;38.90;19.50;;;;;;;-2.34;57.42;100365.49;104660;1264;110899;-77
2023/02/28 00:48:36;;;;;;;42.20;20.70;;;;;;;-2.37;57.42;100365.83;104738;1264;99847;-77
2023/02/28 00:51:04;;;;;;;42.30;19.10;;;;;;;-2.41;57.51;100359.75;104602;1264;107472;-78
2023/02/28 00:53:33;;;;;;;41.00;20.50;;;;;;;-2.44;57.58;100360.96;104895;1261;97487;-77
2023/02/28 00:56:01;;;;;;;41.10;20.50;;;;;;;-2.44;57.78;100361.31;104703;1262;96628;-76
2023/02/28 00:58:30;;;;;;;45.40;20.90;;;;;;;-2.41;57.54;100364.26;104940;1260;108989;-77
2023/02/28 01:00:58;;;;;;;40.90;19.10;;;;;;;-2.42;57.72;100361.31;104850;1260;101916;-78
2023/02/28 01:03:25;;;;;;;44.10;21.20;;;;;;;-2.48;57.61;100357.32;104571;1270;108580;-78
2023/02/28 01:05:54;;;;;;;44.90;20.80;;;;;;;-2.52;57.44;100360.25;104705;1263;96622;-77
2023/02/28 01:08:22;;;;;;;47.30;21.60;;;;;;;-2.51;57.61;100360.27;104589;1263;96653;-77
2023/02/28 01:10:50;;;;;;;46.60;21.90;;;;;;;-2.51;57.59;100361.48;104527;1264;109923;-77
2023/02/28 01:13:20;;;;;;;47.10;22.00;;;;;;;-2.52;57.87;100356.61;104668;1273;100872;-77
2023/02/28 01:15:54;;;;;;;49.30;22.40;;;;;;;-2.54;57.65;100360.77;104687;1264;106639;-77
2023/02/28 01:18:24;;;;;;;43.70;21.00;;;;;;;-2.56;57.89;100364.94;104675;1273;96697;-77
2023/02/28 01:20:52;;;;;;;43.80;22.20;;;;;;;-2.59;57.79;100367.89;104781;1259;97137;-77
2023/02/28 01:23:23;;;;;;;46.60;23.20;;;;;;;-2.64;57.90;100368.40;104773;1262;109197;-76
2023/02/28 01:25:52;;;;;;;46.40;21.50;;;;;;;-2.68;57.68;100373.43;104823;1265;100703;-77
2023/02/28 01:28:20;;;;;;;45.60;22.70;;;;;;;-2.71;57.98;100377.06;104792;1278;107744;-76
2023/02/28 01:30:50;;;;;;;44.10;22.10;;;;;;;-2.76;58.01;100376.88;104566;1260;97842;-76
2023/02/28 01:33:18;;;;;;;41.20;20.40;;;;;;;-2.81;57.88;100377.91;104958;1259;97098;-77
2023/02/28 01:35:47;;;;;;;45.80;22.50;;;;;;;-2.86;57.68;100377.02;104619;1264;109911;-78
2023/02/28 01:38:15;;;;;;;48.70;25.20;;;;;;;-2.87;57.94;100378.59;104850;1264;100190;-78
2023/02/28 01:40:50;;;;;;;47.80;23.60;;;;;;;-2.85;57.94;100378.40;104684;1273;107614;-77
2023/02/28 01:43:26;;;;;;;42.70;22.30;;;;;;;-2.84;57.83;100379.98;104791;1264;96624;-75
2023/02/28 01:45:56;;;;;;;45.10;22.00;;;;;;;-2.88;57.90;100381.02;105022;1264;97680;-76
2023/02/28 01:48:31;;;;;;;47.90;23.80;;;;;;;-2.90;58.02;100376.15;104956;1262;111511;-75
2023/02/28 01:51:05;;;;;;;47.10;25.80;;;;;;;-2.89;57.94;100375.80;104601;1264;98867;-77
2023/02/28 01:53:37;;;;;;;43.20;21.60;;;;;;;-2.88;58.08;100371.11;104678;1266;107461;-76
2023/02/28 01:56:09;;;;;;;47.50;22.10;;;;;;;-2.89;58.12;100375.27;104535;1265;96668;-76
2023/02/28 01:58:38;;;;;;;48.30;24.10;;;;;;;-2.89;58.16;100377.01;104751;1259;97117;-78
2023/02/28 02:01:06;;;;;;;60.10;25.90;;;;;;;-2.88;58.03;100378.40;104738;1259;109947;-80
2023/02/28 02:03:35;;;;;;;58.80;27.10;;;;;;;-2.88;58.27;100381.71;104791;1262;100924;-77
2023/02/28 02:06:03;;;;;;;53.70;24.20;;;;;;;-2.91;58.27;100384.13;104773;1261;107282;-76
2023/02/28 02:08:31;;;;;;;45.10;22.20;;;;;;;-2.94;58.15;100390.35;104859;1260;96600;-76
2023/02/28 02:11:01;;;;;;;45.60;22.70;;;;;;;-3.01;58.31;100394.84;104712;1259;97112;-76
2023/02/28 02:13:38;;;;;;;41.80;21.10;;;;;;;-3.08;58.14;100394.64;104714;1260;109925;-76
2023/02/28 02:16:25;;;;;;;46.50;23.10;;;;;;;-3.13;58.14;100394.61;104719;1263;100659;-77
2023/02/28 02:18:55;;;;;;;46.00;23.10;;;;;;;-3.14;58.29;100391.84;104575;1263;107586;-77
2023/02/28 02:21:43;;;;;;;50.00;24.60;;;;;;;-3.14;58.61;100391.85;104779;1263;96642;-76
2023/02/28 02:24:13;;;;;;;58.50;29.10;;;;;;;-3.15;58.23;100392.88;104587;1264;97125;-77
2023/02/28 02:27:02;;;;;;;66.60;31.70;;;;;;;-3.18;58.75;100392.67;104692;1263;109947;-77
2023/02/28 02:29:53;;;;;;;73.80;35.40;;;;;;;-3.20;58.47;100394.23;104823;1259;100616;-76
2023/02/28 02:32:49;;;;;;;67.40;34.00;;;;;;;-3.23;58.48;100393.52;104815;1259;107622;-77
2023/02/28 02:35:58;;;;;;;77.60;38.00;;;;;;;-3.30;58.78;100385.15;104873;1262;96628;-77
2023/02/28 02:38:35;;;;;;;73.30;36.30;;;;;;;-3.33;58.67;100383.59;104999;1259;97125;-77
2023/02/28 02:41:24;;;;;;;71.10;35.30;;;;;;;-3.35;58.62;100383.06;104729;1271;109870;-78
2023/02/28 02:44:19;;;;;;;77.20;35.50;;;;;;;-3.40;58.73;100376.78;104800;1259;100736;-76
2023/02/28 02:46:48;;;;;;;;;;;;;;;-3.42;58.72;100374.86;104880;1271;108116;-77
2023/02/28 02:49:24;;;;;;;67.40;32.80;;;;;;;-3.45;58.69;100369.29;104848;1262;97915;-77
2023/02/28 02:51:55;;;;;;;77.40;37.00;;;;;;;-3.46;58.97;100371.02;104688;1264;97816;-78
2023/02/28 02:54:33;;;;;;;88.50;42.20;;;;;;;-3.48;58.98;100367.39;104861;1263;109621;-76
2023/02/28 02:57:08;;;;;;;84.70;40.40;;;;;;;-3.48;59.14;100368.77;104861;1264;100891;-77
2023/02/28 02:59:39;;;;;;;103.60;43.60;;;;;;;-3.45;59.13;100366.86;104728;1275;107331;-77
2023/02/28 03:02:12;;;;;;;96.60;44.30;;;;;;;-3.42;58.83;100366.18;104829;1262;96731;-77
2023/02/28 03:04:49;;;;;;;74.20;37.30;;;;;;;-3.41;59.13;100366.37;104952;1259;97531;-76
2023/02/28 03:07:17;;;;;;;68.50;34.50;;;;;;;-3.44;58.73;100363.75;104545;1265;109391;-75
2023/02/28 03:09:55;;;;;;;62.20;32.40;;;;;;;-3.48;58.93;100364.95;105039;1261;99355;-76
2023/02/28 03:12:32;;;;;;;60.60;28.60;;;;;;;-3.55;58.95;100367.86;104858;1259;107094;-76
2023/02/28 03:15:21;;;;;;;58.40;27.60;;;;;;;-3.62;59.21;100365.39;104924;1263;96585;-76
2023/02/28 03:18:11;;;;;;;54.60;27.70;;;;;;;-3.66;59.02;100364.14;104758;1265;97138;-75
2023/02/28 03:21:18;;;;;;;60.40;28.80;;;;;;;-3.72;59.10;100364.64;104896;1259;109685;-76
2023/02/28 03:23:53;;;;;;;56.30;27.50;;;;;;;-3.74;59.20;100368.43;104658;1274;100924;-76
2023/02/28 03:26:27;;;;;;;55.20;27.00;;;;;;;-3.72;59.28;100370.36;104725;1260;105704;-77
2023/02/28 03:29:23;;;;;;;58.00;29.10;;;;;;;-3.71;59.31;100372.27;104735;1264;96767;-76
2023/02/28 03:32:21;;;;;;;60.50;30.30;;;;;;;-3.72;59.25;100376.08;104685;1264;97676;-77
2023/02/28 03:35:00;;;;;;;53.30;25.30;;;;;;;-3.75;59.51;100375.36;104936;1258;109658;-78
2023/02/28 03:37:31;;;;;;;51.80;24.60;;;;;;;-3.78;59.39;100377.07;104828;1258;101401;-77
2023/02/28 03:40:06;;;;;;;55.20;25.10;;;;;;;-3.80;59.30;100385.20;104727;1264;107367;-78
2023/02/28 03:42:38;;;;;;;51.20;24.20;;;;;;;-3.81;59.26;100392.83;104869;1264;96602;-77
2023/02/28 03:45:13;;;;;;;50.50;23.40;;;;;;;-3.83;59.50;100393.85;104831;1262;97904;-77
2023/02/28 03:47:50;;;;;;;50.70;23.10;;;;;;;-3.84;59.40;100391.92;104888;1262;109643;-77
2023/02/28 03:50:23;;;;;;;46.20;22.80;;;;;;;-3.88;59.34;100391.57;104884;1259;100600;-77
2023/02/28 03:53:20;;;;;;;49.10;23.40;;;;;;;-3.89;59.44;100396.23;104821;1263;107116;-75
2023/02/28 03:55:53;;;;;;;55.20;24.50;;;;;;;-3.85;59.27;100403.52;104961;1259;96646;-77
2023/02/28 03:58:54;;;;;;;45.90;21.10;;;;;;;-3.84;59.58;100402.16;108215;1258;94269;-77
2023/02/28 04:01:35;;;;;;;44.30;21.40;;;;;;;-3.84;59.55;100397.81;108245;1259;110630;-77
2023/02/28 04:04:04;;;;;;;45.60;22.90;;;;;;;-3.84;59.53;100393.65;108126;1258;100871;-77
2023/02/28 04:06:33;;;;;;;47.40;22.60;;;;;;;-3.83;59.30;100388.98;108246;1259;108057;-75
2023/02/28 04:09:03;;;;;;;46.50;24.30;;;;;;;-3.80;59.57;100385.38;108184;1259;95872;-75
2023/02/28 04:11:49;;;;;;;42.90;21.50;;;;;;;-3.78;59.37;100389.36;106167;1259;98557;-76
2023/02/28 04:14:17;;;;;;;46.10;21.20;;;;;;;-3.81;59.68;100389.36;105221;1260;110744;-76
2023/02/28 04:16:45;;;;;;;40.00;19.30;;;;;;;-3.85;59.51;100386.02;108259;1260;99726;-76
2023/02/28 04:19:14;;;;;;;38.70;18.90;;;;;;;-3.89;59.64;100387.74;108230;1258;107640;-76
2023/02/28 04:21:43;;;;;;;38.70;17.90;;;;;;;-3.92;59.55;100384.95;108251;1257;95804;-76
2023/02/28 04:24:21;;;;;;;33.50;16.20;;;;;;;-3.93;59.68;100389.28;108219;1257;96192;-76
2023/02/28 04:26:51;;;;;;;39.00;18.30;;;;;;;-3.94;59.62;100389.77;108159;1260;111282;-76
2023/02/28 04:29:23;;;;;;;36.00;17.40;;;;;;;-3.91;59.69;100392.75;106128;1259;100926;-77
2023/02/28 04:31:57;;;;;;;35.50;19.20;;;;;;;-3.93;59.61;100398.45;104701;1260;107620;-77
2023/02/28 04:34:27;;;;;;;40.00;19.00;;;;;;;-3.96;59.64;100396.16;104853;1262;97964;-77
2023/02/28 04:36:56;;;;;;;42.40;19.80;;;;;;;-4.01;59.45;100398.55;104964;1258;98447;-78
2023/02/28 04:39:39;;;;;;;;;;;;;;;-4.02;59.71;100398.54;104907;1261;111970;-77
2023/02/28 04:42:07;;;;;;;40.50;17.90;;;;;;;-4.04;59.72;100399.05;104863;1261;100694;-77
2023/02/28 04:44:36;;;;;;;39.50;18.70;;;;;;;-4.05;59.69;100400.44;104766;1260;106251;-78
2023/02/28 04:47:03;;;;;;;39.10;19.00;;;;;;;-4.03;59.98;100399.92;104999;1262;97959;-77
2023/02/28 04:49:31;;;;;;;38.60;18.10;;;;;;;-4.06;59.83;100402.16;104745;1260;99618;-78
2023/02/28 04:51:59;;;;;;;39.60;17.90;;;;;;;-4.08;59.78;100404.73;104841;1262;111256;-75
2023/02/28 04:54:28;;;;;;;36.20;17.40;;;;;;;-4.11;59.81;100405.77;104667;1262;100986;-76
2023/02/28 04:56:56;;;;;;;39.30;18.70;;;;;;;-4.12;60.04;100408.35;104884;1259;107606;-76
2023/02/28 04:59:24;;;;;;;43.00;21.00;;;;;;;-4.19;59.71;100408.27;104809;1260;99382;-76
2023/02/28 05:01:52;;;;;;;42.40;20.10;;;;;;;-4.26;59.77;100410.46;104733;1262;98435;-77
2023/02/28 05:04:21;;;;;;;44.30;22.10;;;;;;;-4.26;59.91;100410.80;104899;1262;110969;-77
2023/02/28 05:06:49;;;;;;;43.80;21.10;;;;;;;-4.27;59.94;100411.84;104897;1262;101097;-75
2023/02/28 05:09:17;;;;;;;48.10;22.10;;;;;;;-4.29;59.86;100413.39;104826;1277;107630;-75
2023/02/28 05:11:45;;;;;;;44.60;21.80;;;;;;;-4.28;59.90;100415.63;104730;1260;98009;-76
2023/02/28 05:14:14;;;;;;;45.30;22.80;;;;;;;-4.27;59.91;100419.11;104841;1263;98390;-75
2023/02/28 05:16:43;;;;;;;43.80;22.10;;;;;;;-4.28;59.99;100421.36;104536;1265;110874;-83
2023/02/28 05:19:10;;;;;;;54.60;24.70;;;;;;;-4.28;60.08;100422.73;104844;1263;101307;-80
2023/02/28 05:21:41;;;;;;;51.80;26.60;;;;;;;-4.30;59.99;100429.30;105006;1260;107640;-81
2023/02/28 05:24:11;;;;;;;53.80;28.10;;;;;;;-4.30;60.11;100431.22;104771;1262;99490;-85
2023/02/28 05:26:41;;;;;;;57.20;29.80;;;;;;;-4.30;60.20;100433.80;104842;1260;99202;-88
2023/02/28 05:29:10;;;;;;;51.50;26.50;;;;;;;-4.33;59.90;100434.66;104835;1260;111924;-85
2023/02/28 05:31:38;;;;;;;53.40;26.40;;;;;;;-4.36;60.13;100432.55;104722;1260;101004;-86
2023/02/28 05:34:06;;;;;;;51.80;28.40;;;;;;;-4.40;59.99;100434.75;105092;1263;108242;-87
2023/02/28 05:36:36;;;;;;;58.10;30.10;;;;;;;-4.44;60.28;100432.45;105082;1260;97966;-88
2023/02/28 05:39:12;;;;;;;60.20;34.80;;;;;;;-4.44;60.18;100434.19;105184;1262;99530;-80
2023/02/28 05:41:42;;;;;;;59.00;33.70;;;;;;;-4.40;60.27;100435.10;104942;1262;111266;-78
2023/02/28 05:44:10;;;;;;;66.60;35.80;;;;;;;-4.36;60.26;100438.95;104790;1264;99369;-77
2023/02/28 05:46:38;;;;;;;73.40;38.20;;;;;;;-4.30;60.48;100440.05;105086;1274;107101;-78
2023/02/28 05:49:06;;;;;;;78.80;38.60;;;;;;;-4.27;60.32;100444.23;105088;1263;97970;-80
2023/02/28 05:51:36;;;;;;;72.40;37.90;;;;;;;-4.20;60.29;100451.05;105288;1259;98463;-81
2023/02/28 05:54:04;;;;;;;64.70;32.40;;;;;;;-4.16;60.40;100451.27;105076;1258;112095;-80
2023/02/28 05:56:34;;;;;;;61.30;32.20;;;;;;;-4.11;60.49;100461.02;104978;1262;100898;-79
2023/02/28 05:59:02;;;;;;;57.70;30.70;;;;;;;-4.09;60.56;100462.78;104977;1263;108604;-82
2023/02/28 06:01:36;;;;;;;70.20;36.30;;;;;;;-4.11;60.50;100462.40;105210;1263;99352;-82
2023/02/28 06:04:07;;;;;;;65.00;34.40;;;;;;;-4.09;60.80;100461.39;104909;1263;98495;-82
2023/02/28 06:06:39;;;;;;;70.60;36.80;;;;;;;-4.03;60.74;100464.73;104797;1265;111239;-78
2023/02/28 06:09:07;;;;;;;72.80;35.70;;;;;;;-3.99;60.77;100467.02;105093;1259;100925;-78
2023/02/28 06:11:35;;;;;;;80.20;40.20;;;;;;;-3.95;60.66;100475.56;105084;1262;108659;-78
2023/02/28 06:14:03;;;;;;;69.30;34.60;;;;;;;-3.85;60.96;100474.60;105186;1262;97960;-78
2023/02/28 06:16:34;;;;;;;77.90;36.30;;;;;;;-3.77;61.05;100476.94;104681;1273;99208;-79
2023/02/28 06:19:03;;;;;;;63.60;30.80;;;;;;;-3.67;61.06;100483.60;104893;1260;111245;-79
2023/02/28 06:21:31;;;;;;;59.90;33.40;;;;;;;-3.60;61.08;100485.04;105124;1259;100868;-77
2023/02/28 06:24:00;;;;;;;59.80;30.50;;;;;;;-3.56;61.19;100488.71;104754;1262;107644;-77
2023/02/28 06:26:28;;;;;;;45.30;23.50;;;;;;;-3.52;61.25;100493.60;104881;1262;99005;-79
2023/02/28 06:28:56;;;;;;;47.70;27.20;;;;;;;-3.44;60.95;100492.27;105214;1259;98527;-78
2023/02/28 06:31:25;;;;;;;40.20;19.10;;;;;;;-3.33;60.88;100495.13;106181;1260;111268;-78
2023/02/28 06:33:53;;;;;;;41.90;21.60;;;;;;;-3.24;60.91;100492.59;105085;1258;99272;-78
2023/02/28 06:36:22;;;;;;;44.80;21.50;;;;;;;-3.17;61.16;100495.07;105079;1262;107143;-78
2023/02/28 06:38:54;;;;;;;41.90;20.40;;;;;;;-3.11;60.91;100492.67;104887;1259;98037;-79
2023/02/28 06:41:26;;;;;;;44.60;23.70;;;;;;;-3.05;60.86;100494.10;105335;1257;98447;-79
2023/02/28 06:43:56;;;;;;;38.40;19.10;;;;;;;-3.02;60.96;100495.85;105037;1258;111384;-78
2023/02/28 06:46:24;;;;;;;47.10;24.70;;;;;;;-2.97;61.23;100498.48;104988;1262;100670;-77
2023/02/28 06:48:52;;;;;;;47.30;24.20;;;;;;;-2.92;60.91;100494.52;104662;1265;105743;-79
2023/02/28 06:51:22;;;;;;;46.20;24.90;;;;;;;-2.88;61.21;100499.23;105072;1260;98088;-79
2023/02/28 06:53:51;;;;;;;46.30;21.40;;;;;;;-2.85;61.44;100499.23;104825;1264;97924;-77
2023/02/28 06:56:20;;;;;;;48.70;22.70;;;;;;;-2.81;61.38;100498.39;105009;1265;111276;-79
2023/02/28 06:58:50;;;;;;;49.50;25.10;;;;;;;-2.77;61.28;100501.71;105137;1260;100795;-76
2023/02/28 07:01:19;;;;;;;45.30;24.30;;;;;;;-2.74;61.42;100499.83;105003;1258;107638;-77
2023/02/28 07:03:52;;;;;;;45.10;24.50;;;;;;;-2.71;61.46;100500.70;105102;1262;97973;-76
2023/02/28 07:06:22;;;;;;;45.30;24.30;;;;;;;-2.69;61.57;100501.05;105123;1260;98348;-78
2023/02/28 07:08:52;;;;;;;51.10;27.40;;;;;;;-2.67;61.59;100501.06;104930;1264;111284;-77
2023/02/28 07:11:22;;;;;;;52.30;25.30;;;;;;;-2.64;61.64;100502.48;104984;1260;102865;-77
2023/02/28 07:13:50;;;;;;;59.00;29.60;;;;;;;-2.56;61.52;100500.42;105131;1264;108775;-78
2023/02/28 07:16:18;;;;;;;55.60;29.50;;;;;;;-2.51;61.62;100501.14;105188;1262;97982;-77
2023/02/28 07:18:47;;;;;;;54.10;29.60;;;;;;;-2.48;61.72;100506.36;104929;1264;99650;-79
2023/02/28 07:21:15;;;;;;;48.60;25.60;;;;;;;-2.44;61.78;100510.19;104811;1263;111395;-77
2023/02/28 07:23:43;;;;;;;47.90;25.40;;;;;;;-2.38;61.63;100503.95;105060;1262;100674;-78
2023/02/28 07:26:15;;;;;;;47.10;23.40;;;;;;;-2.32;61.69;100502.77;105138;1278;107554;-79
2023/02/28 07:28:45;;;;;;;49.90;23.50;;;;;;;-2.26;61.88;100504.88;104844;1264;99179;-79
2023/02/28 07:31:14;;;;;;;43.90;22.60;;;;;;;-2.20;61.62;100501.40;104919;1260;98043;-78
2023/02/28 07:33:42;;;;;;;48.90;24.30;;;;;;;-2.17;61.96;100499.85;104880;1265;111262;-78
2023/02/28 07:36:15;;;;;;;42.20;21.90;;;;;;;-2.12;62.18;100500.21;104910;1265;99533;-77
2023/02/28 07:38:44;;;;;;;50.20;26.20;;;;;;;-2.06;62.48;100500.06;105094;1259;105985;-77
2023/02/28 07:41:20;;;;;;;45.60;23.80;;;;;;;-1.99;61.96;100503.20;104794;1262;101435;-77
2023/02/28 07:43:49;;;;;;;41.50;19.60;;;;;;;-1.92;61.93;100497.63;104933;1259;97974;-79
2023/02/28 07:46:18;;;;;;;38.90;18.10;;;;;;;-1.86;62.04;100496.09;105149;1262;110921;-79
2023/02/28 07:48:46;;;;;;;37.00;16.20;;;;;;;-1.81;61.98;100495.56;105125;1259;99416;-80
2023/02/28 07:51:14;;;;;;;36.30;16.90;;;;;;;-1.76;62.06;100497.30;105356;1260;107183;-79
2023/02/28 07:53:42;;;;;;;27.60;12.90;;;;;;;-1.69;62.52;100489.15;104893;1262;98390;-77
2023/02/28 07:56:10;;;;;;;27.80;12.30;;;;;;;-1.63;62.23;100489.66;104800;1262;98470;-78
2023/02/28 07:58:39;;;;;;;27.00;11.70;;;;;;;-1.58;62.54;100486.53;105062;1262;110955;-77
2023/02/28 08:01:10;;;;;;;27.80;12.40;;;;;;;-1.50;62.41;100488.63;104942;1264;100659;-78
2023/02/28 08:03:39;;;;;;;29.80;12.90;;;;;;;-1.44;62.50;100490.53;105325;1262;107419;-79
2023/02/28 08:06:15;;;;;;;25.30;11.40;;;;;;;-1.37;62.65;100488.44;104965;1262;97928;-77
2023/02/28 08:08:44;;;;;;;24.90;10.70;;;;;;;-1.33;62.75;100486.17;104820;1258;97912;-78
2023/02/28 08:11:12;;;;;;;24.90;12.30;;;;;;;-1.31;62.63;100490.52;105006;1263;110745;-78
2023/02/28 08:13:40;;;;;;;25.40;10.80;;;;;;;-1.29;62.63;100492.96;104725;1263;100886;-77
2023/02/28 08:16:07;;;;;;;27.00;12.40;;;;;;;-1.25;62.57;100494.00;105077;1274;107575;-80
2023/02/28 08:18:36;;;;;;;23.60;10.30;;;;;;;-1.21;62.45;100496.59;104842;1262;98704;-78
2023/02/28 08:21:10;;;;;;;26.70;12.20;;;;;;;-1.16;62.66;100497.98;104913;1260;98390;-79
2023/02/28 08:23:38;;;;;;;22.40;10.60;;;;;;;-1.10;62.57;100497.63;104725;1266;110302;-82
2023/02/28 08:26:07;;;;;;;22.00;10.30;;;;;;;-1.09;62.40;100500.23;105009;1259;100904;-81
2023/02/28 08:28:35;;;;;;;21.50;9.10;;;;;;;-1.06;62.47;100496.41;104900;1262;107634;-82
2023/02/28 08:31:08;;;;;;;24.20;10.20;;;;;;;-1.00;62.64;100497.95;105137;1262;97979;-80
2023/02/28 08:33:38;;;;;;;;;;;;;;;-0.95;62.60;100499.51;104967;1259;99304;-80
2023/02/28 08:36:08;;;;;;;21.50;8.50;;;;;;;-0.93;62.68;100497.77;104881;1262;110497;-80
2023/02/28 08:38:37;;;;;;;22.10;9.20;;;;;;;-0.90;62.44;100501.07;105044;1262;100497;-80
2023/02/28 08:41:08;;;;;;;21.70;9.50;;;;;;;-0.87;62.54;100497.23;105049;1275;106607;-79
2023/02/28 08:43:37;;;;;;;22.60;9.90;;;;;;;-0.83;62.45;100496.87;104835;1263;98059;-79
2023/02/28 08:46:07;;;;;;;22.60;9.70;;;;;;;-0.80;62.62;100493.02;104948;1263;99752;-80
2023/02/28 08:48:44;;;;;;;22.40;9.40;;;;;;;-0.79;62.40;100495.45;105942;1262;112063;-92
2023/02/28 08:51:30;;;;;;;27.10;13.20;;;;;;;-0.78;62.50;100492.67;105929;1265;100842;-88
2023/02/28 08:54:00;;;;;;;27.50;13.60;;;;;;;-0.74;62.57;100492.48;105201;1262;107678;-87
2023/02/28 08:56:28;;;;;;;22.10;10.00;;;;;;;-0.66;62.48;100494.73;105047;1265;98041;-84
2023/02/28 08:58:57;;;;;;;23.30;9.40;;;;;;;-0.59;62.41;100501.14;105034;1260;98431;-80
2023/02/28 09:01:28;;;;;;;24.30;9.50;;;;;;;-0.61;62.42;100500.63;104972;1262;111296;-83
2023/02/28 09:03:57;;;;;;;24.10;9.80;;;;;;;-0.63;62.37;100499.59;104684;1263;100325;-77
2023/02/28 09:06:27;;;;;;;22.50;8.70;;;;;;;-0.64;62.39;100495.23;105148;1260;107379;-81
2023/02/28 09:08:59;;;;;;;20.30;8.10;;;;;;;-0.62;62.50;100499.23;105090;1265;97964;-82
2023/02/28 09:11:28;;;;;;;21.00;8.90;;;;;;;-0.59;62.46;100498.70;105215;1259;98475;-82
2023/02/28 09:14:00;;;;;;;25.10;9.70;;;;;;;-0.60;62.38;100495.21;105203;1260;110840;-82
2023/02/28 09:16:27;;;;;;;21.30;9.30;;;;;;;-0.58;62.46;100491.91;105045;1258;100745;-80
2023/02/28 09:18:56;;;;;;;22.30;10.10;;;;;;;-0.53;62.54;100494.66;105487;1262;160846;-77
2023/02/28 09:21:23;;;;;;;20.20;8.90;;;;;;;-0.53;62.56;100497.29;104893;1262;97952;-78
2023/02/28 09:23:52;;;;;;;21.60;9.20;;;;;;;-0.55;62.33;100494.51;105031;1260;98621;-80
2023/02/28 09:26:26;;;;;;;23.80;9.20;;;;;;;-0.54;62.44;100496.23;105088;1265;111263;-80
2023/02/28 09:29:06;;;;;;;21.30;8.90;;;;;;;-0.47;62.37;100490.30;104965;1266;100395;-81
2023/02/28 09:31:34;;;;;;;20.30;7.80;;;;;;;-0.40;62.37;100492.88;104929;1260;107113;-79
2023/02/28 09:34:03;;;;;;;21.80;8.70;;;;;;;-0.40;62.35;100490.09;104823;1263;98596;-80
2023/02/28 09:36:33;;;;;;;19.50;8.00;;;;;;;-0.41;62.34;100491.31;104868;1263;98575;-81
2023/02/28 09:39:15;;;;;;;21.30;8.90;;;;;;;-0.41;62.39;100493.23;104706;1258;111413;-82
2023/02/28 09:41:49;;;;;;;19.70;8.00;;;;;;;-0.41;62.34;100495.84;104951;1262;100889;-78
2023/02/28 09:44:29;;;;;;;19.60;8.30;;;;;;;-0.41;62.36;100493.23;105002;1258;107865;-80
2023/02/28 09:47:11;;;;;;;18.70;7.90;;;;;;;-0.42;62.38;100493.41;104997;1260;97954;-85
2023/02/28 09:49:43;;;;;;;17.90;7.10;;;;;;;-0.38;62.42;100491.98;105070;1260;97934;-83
2023/02/28 09:52:21;;;;;;;22.60;7.80;;;;;;;-0.37;62.51;100490.59;105132;1262;112581;-84
2023/02/28 09:54:49;;;;;;;23.30;9.60;;;;;;;-0.30;62.52;100491.09;104974;1260;100247;-82
2023/02/28 09:57:29;;;;;;;20.80;8.90;;;;;;;-0.23;62.52;100492.97;105382;1258;107667;-84
2023/02/28 10:00:21;;;;;;;19.60;8.00;;;;;;;-0.19;62.30;100497.64;105020;1265;98101;-83
2023/02/28 10:02:57;;;;;;;19.80;8.00;;;;;;;-0.16;62.29;100489.42;105253;1262;98369;-81
2023/02/28 10:05:53;;;;;;;20.10;8.40;;;;;;;-0.12;62.46;100484.89;105243;1260;111396;-79
2023/02/28 10:08:33;;;;;;;20.80;9.00;;;;;;;-0.05;62.69;100487.63;105305;1265;99890;-81
2023/02/28 10:11:06;;;;;;;22.30;9.80;;;;;;;0.04;62.41;100483.73;105049;1258;106709;-82
2023/02/28 10:14:10;;;;;;;24.10;9.50;;;;;;;0.10;62.50;100484.21;105082;1262;97963;-78
2023/02/28 10:16:59;;;;;;;16.30;7.50;;;;;;;0.19;62.46;100482.06;105142;1262;98854;-81
2023/02/28 10:19:55;;;;;;;21.30;8.50;;;;;;;0.24;62.42;100479.59;105109;1262;110786;-80
2023/02/28 10:23:06;;;;;;;22.90;10.30;;;;;;;0.28;62.47;100475.36;104672;1271;100775;-80
2023/02/28 10:25:36;;;;;;;22.20;8.00;;;;;;;0.27;62.45;100472.40;105280;1263;107394;-77
2023/02/28 10:28:11;;;;;;;19.90;9.30;;;;;;;0.27;62.40;100469.27;104949;1271;97979;-79
2023/02/28 10:30:51;;;;;;;18.90;8.00;;;;;;;0.30;62.27;100461.90;105071;1262;97848;-84
2023/02/28 10:33:40;;;;;;;23.20;9.60;;;;;;;0.35;62.34;100458.56;104922;1262;111518;-78
2023/02/28 10:36:14;;;;;;;23.20;9.00;;;;;;;0.41;62.39;100450.47;104973;1262;100901;-79
2023/02/28 10:38:43;;;;;;;19.10;7.80;;;;;;;0.48;62.46;100449.90;105168;1264;107776;-80
2023/02/28 10:41:28;;;;;;;23.10;9.20;;;;;;;0.51;62.43;100443.58;104941;1262;99279;-80
2023/02/28 10:44:17;;;;;;;22.20;9.60;;;;;;;0.58;62.45;100440.90;104968;1260;98837;-78
2023/02/28 10:46:45;;;;;;;23.00;10.00;;;;;;;0.65;62.62;100437.52;105093;1262;110878;-77
2023/02/28 10:49:26;;;;;;;21.00;10.00;;;;;;;0.74;62.41;100436.56;105230;1263;100894;-77
2023/02/28 10:51:59;;;;;;;24.10;10.10;;;;;;;0.79;62.49;100433.36;105197;1262;108597;-77
2023/02/28 10:54:33;;;;;;;24.40;10.30;;;;;;;0.81;62.36;100432.29;104827;1262;97953;-78
2023/02/28 10:57:19;;;;;;;21.60;9.50;;;;;;;0.82;62.35;100432.27;105076;1262;97940;-78
2023/02/28 10:59:52;;;;;;;23.00;10.00;;;;;;;0.78;62.39;100432.67;105024;1271;110958;-79
2023/02/28 11:02:29;;;;;;;;;;;;;;;0.74;62.27;100425.54;105199;1260;101240;-81
2023/02/28 11:04:58;;;;;;;20.30;7.70;;;;;;;0.70;62.26;100425.59;105015;1262;107651;-81
2023/02/28 11:07:27;;;;;;;24.30;8.50;;;;;;;0.69;62.11;100425.06;105069;1261;99268;-84
2023/02/28 11:10:21;;;;;;;19.90;8.60;;;;;;;0.66;62.23;100426.67;105261;1264;98407;-90
2023/02/28 11:12:49;;;;;;;19.70;8.60;;;;;;;0.64;62.17;100419.71;104944;1264;110778;-88
2023/02/28 11:15:25;;;;;;;24.70;10.60;;;;;;;0.67;62.09;100420.90;105412;1260;102324;-81
2023/02/28 11:17:57;;;;;;;21.20;8.80;;;;;;;0.69;62.20;100418.61;104936;1262;107572;-84
2023/02/28 11:20:29;;;;;;;22.10;9.00;;;;;;;0.64;61.99;100415.87;104855;1260;98164;-83
2023/02/28 11:23:00;;;;;;;20.70;9.40;;;;;;;0.62;62.16;100414.67;105265;1259;98354;-86
2023/02/28 11:25:31;;;;;;;20.00;8.80;;;;;;;0.63;61.97;100417.27;104871;1260;111228;-82
2023/02/28 11:28:06;;;;;;;18.40;7.80;;;;;;;0.67;62.13;100416.36;105080;1278;100866;-82